Time;durP1;ratioP1;P1;durP2;ratioP2;P2;SDS_P1;SDS_P2;PMS_P1;PMS_P2;Temp;Humidity;BMP_temperature;BMP_pressure;BME280_temperature;BME280_humidity;BME280_pressure;Samples;Min_cycle;Max_cycle;Signal;HPM_P1;HPM_P2
2023/05/14 00:00:12;;;;;;;26.93;24.77;;;11.50;75.00;;;;;;5013053;28;20181;-86
2023/05/14 00:02:37;;;;;;;25.43;23.43;;;11.50;74.70;;;;;;5013157;28;20272;-87
2023/05/14 00:05:03;;;;;;;26.83;24.83;;;11.50;74.50;;;;;;5013089;28;20201;-87
2023/05/14 00:07:29;;;;;;;28.03;25.67;;;11.50;74.30;;;;;;5013062;28;20264;-87
2023/05/14 00:09:56;;;;;;;27.93;25.77;;;11.60;74.30;;;;;;5013073;28;20598;-86
2023/05/14 00:12:22;;;;;;;27.70;25.23;;;11.50;74.10;;;;;;5012835;28;20197;-87
2023/05/14 00:14:47;;;;;;;29.27;26.80;;;11.50;74.40;;;;;;5013072;28;20269;-87
2023/05/14 00:17:13;;;;;;;27.73;25.83;;;11.50;75.20;;;;;;5012783;28;20555;-87
2023/05/14 00:19:40;;;;;;;27.27;25.27;;;11.30;75.10;;;;;;5014002;28;20169;-86
2023/05/14 00:22:07;;;;;;;15.37;13.90;;;11.30;75.10;;;;;;5012875;28;20212;-87
2023/05/14 00:24:33;;;;;;;17.10;15.43;;;11.30;74.90;;;;;;5012820;28;20174;-88
2023/05/14 00:26:58;;;;;;;17.43;15.60;;;11.30;75.00;;;;;;5012739;28;20526;-87
2023/05/14 00:29:24;;;;;;;17.53;15.93;;;11.40;75.40;;;;;;5011846;28;20193;-87
2023/05/14 00:31:49;;;;;;;15.80;14.63;;;11.40;75.50;;;;;;5012491;28;20205;-87
2023/05/14 00:34:15;;;;;;;16.13;14.67;;;11.30;75.30;;;;;;5012520;28;20216;-86
2023/05/14 00:36:40;;;;;;;16.43;14.97;;;11.20;75.20;;;;;;5013729;28;20205;-86
2023/05/14 00:39:06;;;;;;;16.57;15.10;;;11.20;75.20;;;;;;5012567;28;20185;-86
2023/05/14 00:41:31;;;;;;;16.30;14.93;;;11.20;75.00;;;;;;5012382;28;20292;-86
2023/05/14 00:43:57;;;;;;;16.07;14.63;;;11.20;75.10;;;;;;5013955;28;20256;-86
2023/05/14 00:46:23;;;;;;;15.77;14.23;;;11.10;75.10;;;;;;5012630;28;20584;-87
2023/05/14 00:48:48;;;;;;;16.50;14.80;;;11.10;75.00;;;;;;5012430;28;20200;-87
2023/05/14 00:51:15;;;;;;;16.03;14.83;;;11.10;74.90;;;;;;5012644;28;20231;-87
2023/05/14 00:53:41;;;;;;;15.77;14.63;;;11.10;74.80;;;;;;5012419;28;20204;-87
2023/05/14 00:56:07;;;;;;;16.20;14.90;;;11.10;74.70;;;;;;5013726;28;20173;-87
2023/05/14 00:58:32;;;;;;;16.00;14.60;;;11.10;74.80;;;;;;5012393;28;20169;-87
2023/05/14 01:00:58;;;;;;;16.67;15.37;;;11.00;74.90;;;;;;5012326;28;20225;-87
2023/05/14 01:03:24;;;;;;;16.63;15.13;;;11.00;75.30;;;;;;5013765;28;20177;-87
2023/05/14 01:06:27;;;;;;;16.33;14.67;;;10.90;75.30;;;;;;5012583;28;20174;-87
2023/05/14 01:09:22;;;;;;;30.13;28.07;;;10.80;75.60;;;;;;4992661;28;20213;-87
2023/05/14 01:12:25;;;;;;;28.80;26.70;;;10.80;75.60;;;;;;5012209;28;20232;-87
2023/05/14 01:15:12;;;;;;;27.50;25.60;;;10.70;75.80;;;;;;5012397;28;20176;-87
2023/05/14 01:17:55;;;;;;;29.93;26.37;;;10.70;75.80;;;;;;5012245;28;20631;-87
2023/05/14 01:20:21;;;;;;;28.50;26.50;;;10.60;75.80;;;;;;5012225;28;20165;-87
2023/05/14 01:22:46;;;;;;;28.93;26.83;;;10.70;75.60;;;;;;5013482;28;20184;-86
2023/05/14 01:25:12;;;;;;;29.00;26.37;;;10.60;75.60;;;;;;5012192;28;20173;-87
2023/05/14 01:27:41;;;;;;;29.93;27.67;;;10.50;75.60;;;;;;5012045;28;20276;-87
2023/05/14 01:30:36;;;;;;;28.90;26.57;;;10.50;75.80;;;;;;5012240;28;20182;-86
2023/05/14 01:33:12;;;;;;;29.70;27.07;;;10.50;76.10;;;;;;5011861;28;20182;-87
2023/05/14 01:35:39;;;;;;;30.07;27.53;;;10.40;76.10;;;;;;5011979;28;20208;-87
2023/05/14 01:38:08;;;;;;;28.17;25.87;;;10.40;75.90;;;;;;5011976;28;20653;-87
2023/05/14 01:40:35;;;;;;;27.13;25.13;;;10.40;75.80;;;;;;5012074;28;20312;-87
2023/05/14 01:43:02;;;;;;;28.23;25.83;;;10.40;75.60;;;;;;5015817;28;20706;-87
2023/05/14 01:45:29;;;;;;;28.17;26.07;;;10.30;75.50;;;;;;5017219;28;20670;-87
2023/05/14 01:47:54;;;;;;;27.93;25.77;;;10.30;75.40;;;;;;5015691;28;20181;-86
2023/05/14 01:50:20;;;;;;;28.07;26.07;;;10.30;75.40;;;;;;5015450;28;20288;-87
2023/05/14 01:52:47;;;;;;;31.53;28.67;;;10.30;75.30;;;;;;5015625;28;20184;-87
2023/05/14 01:55:12;;;;;;;29.90;27.60;;;10.10;76.30;;;;;;5017152;28;20635;-87
2023/05/14 01:57:38;;;;;;;28.20;26.07;;;9.60;78.00;;;;;;5016585;28;20212;-86
2023/05/14 02:00:04;;;;;;;27.23;25.23;;;9.50;79.30;;;;;;5016480;28;20177;-86
2023/05/14 02:02:30;;;;;;;25.83;23.80;;;9.30;79.90;;;;;;5016521;28;20288;-87
2023/05/14 02:04:55;;;;;;;25.43;23.43;;;9.00;80.80;;;;;;5015285;28;20272;-87
2023/05/14 02:07:21;;;;;;;24.77;22.50;;;9.00;81.20;;;;;;5015158;28;20264;-86
2023/05/14 02:09:46;;;;;;;25.07;22.83;;;9.00;81.40;;;;;;5015196;28;20185;-87
2023/05/14 02:12:12;;;;;;;25.10;22.80;;;8.90;81.50;;;;;;5015324;28;20261;-88
2023/05/14 02:14:37;;;;;;;14.43;12.83;;;8.80;81.80;;;;;;5016311;28;20647;-87
2023/05/14 02:17:03;;;;;;;13.77;12.57;;;8.80;81.90;;;;;;5015068;28;20201;-87
2023/05/14 02:19:29;;;;;;;15.03;13.63;;;8.60;82.20;;;;;;5015029;28;20235;-88
2023/05/14 02:21:54;;;;;;;14.37;13.10;;;8.70;82.60;;;;;;5015401;28;20208;-88
2023/05/14 02:24:20;;;;;;;16.90;13.80;;;8.70;82.90;;;;;;5016476;28;20178;-88
2023/05/14 02:26:46;;;;;;;15.00;13.70;;;8.80;82.80;;;;;;5015011;28;20184;-88
2023/05/14 02:29:12;;;;;;;14.90;13.60;;;8.80;82.60;;;;;;5015922;28;20166;-88
2023/05/14 02:31:38;;;;;;;14.20;12.80;;;8.80;82.70;;;;;;5014648;28;20745;-87
2023/05/14 02:34:05;;;;;;;19.03;13.33;;;8.80;82.90;;;;;;5015448;28;20261;-87
2023/05/14 02:36:31;;;;;;;14.17;12.70;;;8.80;82.70;;;;;;5014530;28;20215;-87
2023/05/14 02:38:58;;;;;;;16.63;13.50;;;8.80;82.80;;;;;;5014635;28;20181;-87
2023/05/14 02:41:24;;;;;;;14.47;13.20;;;8.90;82.90;;;;;;5015634;28;20209;-87
2023/05/14 02:43:49;;;;;;;14.13;12.77;;;9.00;82.80;;;;;;5014485;28;20655;-87
2023/05/14 02:46:15;;;;;;;17.00;13.07;;;9.10;82.60;;;;;;5015697;28;20173;-88
2023/05/14 02:48:40;;;;;;;14.40;12.93;;;9.10;82.40;;;;;;5014193;28;20196;-87
2023/05/14 02:51:06;;;;;;;15.67;14.17;;;9.00;82.30;;;;;;5014369;28;20220;-87
2023/05/14 02:53:32;;;;;;;13.50;12.23;;;9.10;82.30;;;;;;5013481;28;20181;-87
2023/05/14 02:55:57;;;;;;;14.53;13.13;;;9.00;82.10;;;;;;5014239;28;20182;-87
2023/05/14 02:58:23;;;;;;;19.70;17.90;;;9.00;82.00;;;;;;5015312;28;20208;-87
2023/05/14 03:00:49;;;;;;;21.70;19.90;;;9.10;81.80;;;;;;5014196;28;20197;-87
2023/05/14 03:03:14;;;;;;;21.97;20.30;;;9.10;81.50;;;;;;5014098;28;20169;-87
2023/05/14 03:05:40;;;;;;;23.30;21.27;;;9.20;81.30;;;;;;5015201;28;20170;-87
2023/05/14 03:08:05;;;;;;;24.73;22.73;;;9.20;81.10;;;;;;5015541;28;20224;-87
2023/05/14 03:10:31;;;;;;;23.87;21.97;;;9.20;81.00;;;;;;5015426;28;20600;-86
2023/05/14 03:12:57;;;;;;;24.23;22.43;;;9.10;80.90;;;;;;5013919;28;20602;-87
2023/05/14 03:15:23;;;;;;;24.13;22.23;;;9.20;80.90;;;;;;5015205;28;20173;-87
2023/05/14 03:17:48;;;;;;;24.23;22.37;;;9.10;81.00;;;;;;5013887;28;20578;-87
2023/05/14 03:20:14;;;;;;;24.63;22.30;;;8.80;81.30;;;;;;5013736;28;20647;-87
2023/05/14 03:22:39;;;;;;;23.93;22.03;;;8.80;81.80;;;;;;5013749;28;20213;-87
2023/05/14 03:25:05;;;;;;;23.80;21.70;;;8.70;82.10;;;;;;5014982;28;20251;-87
2023/05/14 03:27:32;;;;;;;23.60;21.23;;;8.60;82.50;;;;;;5013729;28;20181;-87
2023/05/14 03:29:57;;;;;;;23.00;21.10;;;8.60;82.70;;;;;;5014905;28;20188;-87
2023/05/14 03:32:23;;;;;;;21.00;19.13;;;8.60;82.90;;;;;;5013609;28;20582;-87
2023/05/14 03:34:48;;;;;;;21.63;19.77;;;8.60;83.10;;;;;;5015046;28;20188;-87
2023/05/14 03:37:14;;;;;;;20.60;18.97;;;8.70;83.10;;;;;;5013523;28;20259;-87
2023/05/14 03:39:39;;;;;;;20.33;18.80;;;8.80;83.10;;;;;;5013489;28;20219;-87
2023/05/14 03:42:05;;;;;;;20.80;19.20;;;9.10;83.20;;;;;;5013509;28;20627;-87
2023/05/14 03:44:30;;;;;;;22.40;20.60;;;9.20;82.20;;;;;;5014575;28;20180;-87
2023/05/14 03:46:56;;;;;;;22.07;20.17;;;9.30;81.90;;;;;;5013257;28;20185;-87
2023/05/14 03:49:21;;;;;;;21.77;19.80;;;9.30;81.80;;;;;;5013161;28;20201;-87
2023/05/14 03:51:47;;;;;;;21.20;19.40;;;9.40;81.50;;;;;;5013184;28;20201;-87
2023/05/14 03:54:12;;;;;;;21.40;19.47;;;9.30;81.60;;;;;;5013149;28;20667;-87
2023/05/14 03:56:38;;;;;;;22.07;20.07;;;9.30;81.80;;;;;;5013090;28;20236;-87
2023/05/14 03:59:03;;;;;;;22.27;19.60;;;9.30;82.20;;;;;;5014388;28;20213;-87
2023/05/14 04:01:29;;;;;;;21.77;19.80;;;9.30;82.50;;;;;;5013027;28;20267;-87
2023/05/14 04:03:54;;;;;;;20.87;19.10;;;9.40;82.60;;;;;;5012991;28;20674;-87
2023/05/14 04:06:20;;;;;;;20.77;19.03;;;9.30;82.70;;;;;;5013199;28;20276;-87
2023/05/14 04:08:45;;;;;;;19.90;18.30;;;9.30;82.80;;;;;;5014287;28;20255;-87
2023/05/14 04:11:11;;;;;;;15.47;13.83;;;9.40;83.10;;;;;;5012943;28;20300;-87
2023/05/14 04:13:36;;;;;;;15.00;13.47;;;9.40;83.20;;;;;;5014162;28;20195;-87
2023/05/14 04:16:02;;;;;;;15.60;13.93;;;9.40;83.40;;;;;;5012913;28;20178;-86
2023/05/14 04:18:28;;;;;;;15.13;13.77;;;9.50;83.60;;;;;;5012823;28;20652;-87
2023/05/14 04:20:53;;;;;;;14.07;12.67;;;9.60;83.70;;;;;;5014220;28;20189;-87
2023/05/14 04:23:19;;;;;;;14.73;13.33;;;9.70;83.70;;;;;;5012737;28;20253;-86
2023/05/14 04:25:45;;;;;;;14.57;13.07;;;9.80;83.80;;;;;;5012779;28;20173;-87
2023/05/14 04:28:10;;;;;;;15.13;12.70;;;9.90;84.00;;;;;;5012498;28;20189;-86
2023/05/14 04:30:36;;;;;;;15.40;13.30;;;10.00;84.00;;;;;;5012430;28;20208;-86
2023/05/14 04:33:01;;;;;;;16.47;13.27;;;10.10;84.00;;;;;;5013727;28;20188;-87
2023/05/14 04:35:27;;;;;;;17.47;12.67;;;10.30;83.90;;;;;;5012456;28;20556;-87
2023/05/14 04:37:53;;;;;;;14.70;13.20;;;10.40;84.20;;;;;;5012362;28;20296;-86
2023/05/14 04:40:18;;;;;;;17.17;13.33;;;10.60;84.80;;;;;;5012388;28;20177;-86
2023/05/14 04:42:44;;;;;;;18.63;13.00;;;10.70;85.00;;;;;;5013576;28;20173;-86
2023/05/14 04:45:10;;;;;;;14.80;12.97;;;10.70;85.00;;;;;;5012495;28;20184;-87
2023/05/14 04:47:35;;;;;;;15.40;12.70;;;10.90;85.00;;;;;;5012331;28;20212;-86
2023/05/14 04:50:01;;;;;;;13.20;12.00;;;11.00;85.10;;;;;;5012566;28;20275;-86
2023/05/14 04:52:27;;;;;;;15.73;13.80;;;11.10;84.90;;;;;;5013462;28;20193;-86
2023/05/14 04:54:54;;;;;;;18.13;16.27;;;11.20;84.30;;;;;;5013697;28;20212;-86
2023/05/14 04:57:19;;;;;;;19.13;17.27;;;11.20;84.00;;;;;;5012680;28;20362;-86
2023/05/14 04:59:45;;;;;;;18.67;16.70;;;11.40;84.00;;;;;;5012222;28;20719;-86
2023/05/14 05:02:10;;;;;;;23.70;17.53;;;11.50;83.80;;;;;;5012206;28;20685;-86
2023/05/14 05:04:36;;;;;;;24.47;17.87;;;11.60;83.60;;;;;;5013452;28;20173;-86
2023/05/14 05:07:01;;;;;;;20.27;18.47;;;11.70;83.30;;;;;;5012265;28;20200;-86
2023/05/14 05:09:27;;;;;;;19.90;18.23;;;11.80;83.00;;;;;;5013420;28;20188;-87
2023/05/14 05:11:52;;;;;;;19.03;17.53;;;11.90;82.90;;;;;;5012011;28;20193;-83
2023/05/14 05:14:18;;;;;;;19.90;18.20;;;12.00;82.70;;;;;;5012185;28;20184;-86
2023/05/14 05:16:44;;;;;;;21.07;19.10;;;12.10;82.30;;;;;;5014122;28;20208;-85
2023/05/14 05:19:09;;;;;;;19.50;17.77;;;12.20;82.10;;;;;;5016112;28;20243;-87
2023/05/14 05:21:35;;;;;;;20.83;18.80;;;12.30;82.00;;;;;;5015942;28;20204;-86
2023/05/14 05:24:00;;;;;;;19.97;17.80;;;12.40;81.70;;;;;;5017565;28;20181;-87
2023/05/14 05:26:26;;;;;;;20.07;18.23;;;12.60;81.90;;;;;;5015971;28;20185;-86
2023/05/14 05:28:52;;;;;;;20.63;18.67;;;12.70;81.60;;;;;;5017451;28;20200;-86
2023/05/14 05:31:18;;;;;;;25.03;18.33;;;12.80;81.40;;;;;;5015892;28;20232;-86
2023/05/14 05:33:43;;;;;;;20.43;18.47;;;12.80;81.40;;;;;;5015945;28;20185;-86
2023/05/14 05:36:09;;;;;;;20.47;18.30;;;12.90;81.40;;;;;;5016800;28;20643;-86
2023/05/14 05:38:35;;;;;;;19.97;18.17;;;13.10;81.50;;;;;;5015864;28;20260;-86
2023/05/14 05:41:00;;;;;;;19.23;13.27;;;13.10;81.40;;;;;;5016800;28;20192;-86
2023/05/14 05:43:27;;;;;;;14.53;13.27;;;13.20;81.10;;;;;;5016886;28;20177;-86
2023/05/14 05:45:53;;;;;;;15.40;13.93;;;13.40;80.20;;;;;;5015472;28;20549;-86
2023/05/14 05:48:18;;;;;;;14.77;13.40;;;13.50;79.30;;;;;;5015575;28;20272;-85
2023/05/14 05:50:46;;;;;;;15.93;14.30;;;13.50;79.00;;;;;;5017173;28;20196;-86
2023/05/14 05:53:12;;;;;;;15.20;13.80;;;13.70;79.10;;;;;;5016988;28;20173;-85
2023/05/14 05:55:38;;;;;;;15.23;13.77;;;13.80;78.80;;;;;;5015699;28;20268;-85
2023/05/14 05:58:03;;;;;;;14.80;13.40;;;14.00;78.40;;;;;;5015540;28;20205;-86
2023/05/14 06:00:30;;;;;;;14.40;13.20;;;14.10;78.00;;;;;;5015495;28;20197;-86
2023/05/14 06:02:55;;;;;;;14.37;13.27;;;14.20;77.80;;;;;;5016679;28;20169;-86
2023/05/14 06:05:21;;;;;;;15.87;14.57;;;14.40;78.00;;;;;;5015249;28;20180;-86
2023/05/14 06:07:46;;;;;;;14.45;13.15;;;14.50;77.10;;;;;;5015383;28;20188;-87
2023/05/14 06:10:12;;;;;;;13.43;12.13;;;14.60;77.00;;;;;;5015276;28;20185;-86
2023/05/14 06:12:37;;;;;;;15.35;14.05;;;14.80;76.20;;;;;;5015164;28;20267;-87
2023/05/14 06:15:03;;;;;;;15.57;12.60;;;14.90;76.10;;;;;;5016361;28;20228;-86
2023/05/14 06:17:29;;;;;;;14.45;13.10;;;15.00;75.70;;;;;;5016111;28;20368;-87
2023/05/14 06:19:54;;;;;;;14.60;13.02;;;15.00;75.80;;;;;;5015219;28;20632;-87
2023/05/14 06:22:20;;;;;;;13.23;12.18;;;15.10;75.50;;;;;;5016010;28;20564;-87
2023/05/14 06:24:46;;;;;;;12.63;11.40;;;15.20;75.30;;;;;;5014818;28;20710;-87
2023/05/14 06:27:11;;;;;;;14.95;10.95;;;15.20;75.20;;;;;;5013804;28;20590;-88
2023/05/14 06:29:37;;;;;;;14.48;13.32;;;15.30;75.60;;;;;;5014525;28;20183;-88
2023/05/14 06:32:03;;;;;;;16.55;13.02;;;15.50;75.40;;;;;;5014689;28;20255;-87
2023/05/14 06:34:29;;;;;;;13.18;11.93;;;15.60;75.00;;;;;;5014717;28;20181;-87
2023/05/14 06:36:56;;;;;;;17.00;15.88;;;15.70;73.80;;;;;;5016082;28;20274;-87
2023/05/14 06:39:21;;;;;;;16.35;14.85;;;15.90;72.70;;;;;;5014692;28;20174;-87
2023/05/14 06:41:47;;;;;;;18.17;16.75;;;16.00;71.30;;;;;;5015724;28;20547;-87
2023/05/14 06:44:12;;;;;;;17.00;15.63;;;16.20;71.70;;;;;;5014632;28;20558;-87
2023/05/14 06:46:38;;;;;;;13.65;12.55;;;16.20;70.30;;;;;;5015670;28;20546;-87
2023/05/14 06:49:04;;;;;;;18.17;16.77;;;16.30;70.40;;;;;;5016148;28;20189;-87
2023/05/14 06:51:29;;;;;;;17.83;16.27;;;16.60;69.50;;;;;;5014357;28;20629;-87
2023/05/14 06:53:55;;;;;;;18.02;16.60;;;16.70;68.30;;;;;;5014379;28;20178;-86
2023/05/14 06:56:21;;;;;;;12.32;11.23;;;16.80;69.10;;;;;;5015477;28;20196;-86
2023/05/14 06:58:47;;;;;;;16.98;15.77;;;16.90;68.30;;;;;;5014607;28;20288;-86
2023/05/14 07:01:12;;;;;;;17.23;15.93;;;17.00;68.10;;;;;;5014572;28;20210;-86
2023/05/14 07:03:38;;;;;;;10.30;9.60;;;17.20;67.80;;;;;;5014098;28;20183;-88
2023/05/14 07:06:04;;;;;;;10.93;10.23;;;17.20;67.80;;;;;;5014038;28;20595;-87
2023/05/14 07:08:29;;;;;;;11.35;10.45;;;17.30;66.50;;;;;;5013946;28;20277;-87
2023/05/14 07:10:56;;;;;;;11.88;10.88;;;17.30;67.30;;;;;;5014140;28;20197;-87
2023/05/14 07:13:22;;;;;;;13.07;12.02;;;17.40;65.90;;;;;;5013916;28;20173;-87
2023/05/14 07:15:47;;;;;;;13.77;12.88;;;17.40;66.10;;;;;;5015586;28;20244;-86
2023/05/14 07:18:13;;;;;;;13.95;12.88;;;17.50;65.10;;;;;;5013793;28;20679;-87
2023/05/14 07:20:38;;;;;;;13.73;12.65;;;17.70;65.00;;;;;;5013739;28;20725;-87
2023/05/14 07:23:04;;;;;;;15.27;13.80;;;17.70;65.00;;;;;;5014954;28;20180;-87
2023/05/14 07:25:29;;;;;;;15.10;13.82;;;17.80;63.70;;;;;;5013715;28;20176;-87
2023/05/14 07:27:55;;;;;;;14.10;13.05;;;17.80;64.50;;;;;;5014611;28;20184;-86
2023/05/14 07:30:20;;;;;;;15.20;13.80;;;17.80;65.60;;;;;;5016107;28;20181;-87
2023/05/14 07:32:46;;;;;;;15.93;14.63;;;17.80;63.10;;;;;;5015541;28;20174;-87
2023/05/14 07:35:12;;;;;;;16.10;14.68;;;17.90;64.70;;;;;;5014136;28;20181;-86
2023/05/14 07:37:37;;;;;;;16.27;15.18;;;18.00;62.30;;;;;;5014976;28;20602;-87
2023/05/14 07:40:03;;;;;;;14.40;13.30;;;18.10;62.40;;;;;;5014728;28;20180;-87
2023/05/14 07:42:29;;;;;;;15.45;14.35;;;18.20;61.70;;;;;;5013349;28;20197;-87
2023/05/14 07:44:54;;;;;;;15.00;13.70;;;18.20;62.20;;;;;;5013487;28;20636;-87
2023/05/14 07:47:20;;;;;;;13.93;12.93;;;18.30;62.30;;;;;;5013492;28;20655;-87
2023/05/14 07:49:45;;;;;;;15.05;13.80;;;18.40;61.80;;;;;;5013198;28;20221;-86
2023/05/14 07:52:11;;;;;;;22.05;20.60;;;18.60;61.30;;;;;;5015104;28;20228;-86
2023/05/14 07:54:37;;;;;;;23.58;21.40;;;18.60;59.90;;;;;;5013180;28;20189;-87
2023/05/14 07:57:02;;;;;;;22.10;20.60;;;18.70;61.10;;;;;;5013138;28;20205;-87
2023/05/14 07:59:28;;;;;;;21.40;19.80;;;18.80;58.60;;;;;;5014223;28;20189;-87
2023/05/14 08:01:53;;;;;;;21.48;20.00;;;19.00;59.60;;;;;;5014199;28;20666;-87
2023/05/14 08:04:19;;;;;;;19.70;18.38;;;19.10;58.10;;;;;;5013123;28;20316;-87
2023/05/14 08:06:44;;;;;;;21.77;20.23;;;19.20;58.20;;;;;;5013167;28;20184;-87
2023/05/14 08:09:10;;;;;;;22.58;20.52;;;19.30;58.70;;;;;;5012990;28;20670;-87
2023/05/14 08:11:35;;;;;;;21.70;20.15;;;19.30;57.20;;;;;;5014167;28;20247;-88
2023/05/14 08:14:01;;;;;;;21.80;20.30;;;19.30;55.50;;;;;;5012870;28;20626;-87
2023/05/14 08:16:27;;;;;;;15.32;14.00;;;19.20;54.50;;;;;;5013574;28;20209;-87
2023/05/14 08:18:52;;;;;;;14.68;13.48;;;19.20;55.00;;;;;;5012742;28;20181;-88
2023/05/14 08:21:17;;;;;;;14.95;13.63;;;19.30;54.80;;;;;;5013062;28;20280;-88
2023/05/14 08:23:43;;;;;;;14.45;13.30;;;19.50;55.40;;;;;;5014079;28;20165;-89
2023/05/14 08:26:08;;;;;;;13.80;12.55;;;19.50;54.60;;;;;;5013240;28;20200;-89
2023/05/14 08:28:34;;;;;;;13.73;12.63;;;19.50;54.40;;;;;;5012780;28;20165;-88
2023/05/14 08:31:00;;;;;;;13.93;12.85;;;19.40;53.90;;;;;;5013035;28;20189;-88
2023/05/14 08:33:25;;;;;;;13.50;12.57;;;19.30;53.00;;;;;;5014123;28;20218;-89
2023/05/14 08:35:52;;;;;;;14.00;12.93;;;19.40;52.00;;;;;;5012774;28;20169;-88
2023/05/14 08:38:18;;;;;;;14.40;12.93;;;19.30;53.10;;;;;;5012385;28;20205;-87
2023/05/14 08:40:59;;;;;;;13.57;12.48;;;19.20;55.70;;;;;;5012438;28;20216;-87
2023/05/14 08:43:29;;;;;;;14.52;13.07;;;19.40;54.60;;;;;;5013733;28;20303;-87
2023/05/14 08:46:00;;;;;;;14.02;13.02;;;19.40;56.00;;;;;;5013503;28;20180;-87
2023/05/14 08:48:30;;;;;;;14.35;13.05;;;19.60;56.10;;;;;;5012283;28;20169;-87
2023/05/14 08:50:56;;;;;;;14.85;13.25;;;19.80;54.80;;;;;;5011612;28;20208;-87
2023/05/14 08:53:22;;;;;;;13.90;12.80;;;20.00;54.70;;;;;;5012297;28;20182;-87
2023/05/14 08:55:49;;;;;;;13.55;12.50;;;20.10;50.70;;;;;;5012364;28;20196;-87
2023/05/14 08:58:15;;;;;;;14.32;13.05;;;20.20;52.00;;;;;;5012210;28;20211;-88
2023/05/14 09:00:41;;;;;;;14.35;13.43;;;20.20;47.70;;;;;;5012186;28;20197;-88
2023/05/14 09:03:07;;;;;;;14.85;12.93;;;20.30;49.00;;;;;;5013370;28;20173;-87
2023/05/14 09:05:33;;;;;;;20.00;18.65;;;20.50;48.60;;;;;;5013422;28;20200;-87
2023/05/14 09:07:58;;;;;;;21.15;19.33;;;20.70;49.50;;;;;;5012109;28;20178;-88
2023/05/14 09:10:24;;;;;;;20.67;19.17;;;20.90;49.60;;;;;;5012084;28;20208;-88
2023/05/14 09:12:50;;;;;;;21.13;19.63;;;20.90;47.40;;;;;;5012158;28;20221;-88
2023/05/14 09:15:16;;;;;;;20.45;18.73;;;21.00;44.80;;;;;;5012158;28;20181;-88
2023/05/14 09:17:42;;;;;;;20.20;18.70;;;21.10;45.80;;;;;;5011960;28;20201;-88
2023/05/14 09:20:11;;;;;;;20.65;18.90;;;21.20;48.20;;;;;;5013209;28;20174;-88
2023/05/14 09:22:37;;;;;;;19.88;18.27;;;21.30;48.20;;;;;;5014147;28;20188;-90
2023/05/14 09:25:04;;;;;;;21.85;19.25;;;21.30;47.70;;;;;;5013281;28;20209;-89
2023/05/14 09:27:31;;;;;;;15.00;13.77;;;21.50;45.80;;;;;;5012043;28;20173;-90
2023/05/14 09:30:10;;;;;;;15.02;13.90;;;21.30;46.00;;;;;;5012026;28;20188;-88
2023/05/14 09:32:42;;;;;;;14.88;13.60;;;21.20;44.80;;;;;;5012064;28;20220;-88
2023/05/14 09:35:10;;;;;;;14.70;13.50;;;21.20;45.20;;;;;;5011940;28;20200;-87
2023/05/14 09:37:35;;;;;;;14.52;13.13;;;21.30;44.80;;;;;;5013137;28;20200;-87
2023/05/14 09:40:08;;;;;;;14.68;13.50;;;21.30;44.90;;;;;;5011777;28;20169;-86
2023/05/14 09:42:33;;;;;;;15.20;13.85;;;21.00;45.80;;;;;;5013166;28;20648;-87
2023/05/14 09:44:59;;;;;;;15.05;13.77;;;21.10;46.10;;;;;;5013100;28;20261;-87
2023/05/14 09:47:25;;;;;;;15.43;14.23;;;21.10;45.70;;;;;;5011797;28;20272;-87
2023/05/14 09:49:51;;;;;;;15.35;14.10;;;21.20;44.50;;;;;;5012851;28;20199;-86
2023/05/14 09:52:22;;;;;;;14.43;13.32;;;21.40;46.90;;;;;;5011640;28;20243;-87
2023/05/14 09:54:49;;;;;;;15.02;13.93;;;21.60;46.00;;;;;;5011708;28;20212;-86
2023/05/14 09:57:15;;;;;;;15.10;13.80;;;21.70;42.90;;;;;;5011492;28;20576;-86
2023/05/14 09:59:41;;;;;;;14.10;12.90;;;21.80;43.90;;;;;;5011600;28;20173;-86
2023/05/14 10:02:14;;;;;;;14.57;13.23;;;22.00;45.50;;;;;;5012624;28;20718;-86
2023/05/14 10:04:40;;;;;;;15.45;14.20;;;21.90;42.80;;;;;;5015262;28;20192;-88
2023/05/14 10:07:06;;;;;;;15.63;14.43;;;21.90;42.50;;;;;;5016382;28;20640;-86
2023/05/14 10:09:32;;;;;;;15.50;14.15;;;21.90;41.30;;;;;;5015029;28;20181;-86
2023/05/14 10:12:00;;;;;;;16.30;13.40;;;21.90;41.40;;;;;;5016227;28;20216;-86
2023/05/14 10:14:32;;;;;;;21.23;19.55;;;22.10;42.00;;;;;;5016279;28;20205;-86
2023/05/14 10:17:00;;;;;;;21.27;19.85;;;22.10;42.70;;;;;;5014969;28;20204;-86
2023/05/14 10:19:29;;;;;;;20.90;19.42;;;22.00;42.70;;;;;;5015049;28;20177;-88
2023/05/14 10:22:00;;;;;;;21.45;19.75;;;22.10;40.70;;;;;;5014794;28;20194;-87
2023/05/14 10:24:28;;;;;;;20.55;19.23;;;21.90;39.90;;;;;;5014961;28;20162;-90
2023/05/14 10:26:53;;;;;;;21.13;19.65;;;21.80;42.10;;;;;;5016272;28;20177;-88
2023/05/14 10:29:19;;;;;;;22.17;20.17;;;21.70;41.10;;;;;;5014800;28;20674;-89
2023/05/14 10:31:53;;;;;;;21.20;19.65;;;21.80;42.30;;;;;;5014977;28;20225;-88
2023/05/14 10:34:44;;;;;;;21.38;19.83;;;21.90;42.60;;;;;;5014864;28;20173;-89
2023/05/14 10:37:16;;;;;;;21.83;20.30;;;21.80;42.60;;;;;;5015954;28;20224;-88
2023/05/14 10:39:53;;;;;;;14.88;13.55;;;21.80;42.20;;;;;;5014865;28;20172;-89
2023/05/14 10:42:21;;;;;;;14.93;13.70;;;22.20;40.60;;;;;;5014516;28;20208;-89
2023/05/14 10:44:52;;;;;;;14.93;13.73;;;22.10;40.40;;;;;;5015747;28;20177;-88
2023/05/14 10:47:21;;;;;;;15.00;13.80;;;21.80;39.90;;;;;;5014509;28;20213;-89
2023/05/14 10:49:51;;;;;;;15.77;14.43;;;21.90;42.40;;;;;;5014678;28;20204;-89
2023/05/14 10:52:21;;;;;;;15.80;14.35;;;22.10;42.80;;;;;;5014819;28;20737;-89
2023/05/14 10:54:58;;;;;;;15.38;14.15;;;22.50;40.60;;;;;;5014376;28;20595;-88
2023/05/14 10:57:26;;;;;;;14.98;13.90;;;22.60;42.40;;;;;;5014247;28;20279;-89
2023/05/14 10:59:53;;;;;;;14.90;13.68;;;23.00;40.90;;;;;;5014300;28;20193;-89
2023/05/14 11:02:25;;;;;;;14.27;13.18;;;23.10;39.30;;;;;;5014093;28;20194;-89
2023/05/14 11:05:07;;;;;;;15.02;13.70;;;22.40;39.80;;;;;;5014185;28;20188;-89
2023/05/14 11:07:38;;;;;;;13.93;12.93;;;22.70;41.00;;;;;;5015734;28;20150;-89
2023/05/14 11:10:11;;;;;;;14.73;13.63;;;22.90;39.40;;;;;;5014063;28;20268;-89
2023/05/14 11:12:39;;;;;;;16.27;13.20;;;23.00;39.90;;;;;;5014169;28;20177;-89
2023/05/14 11:15:17;;;;;;;14.88;13.45;;;23.20;39.70;;;;;;5013326;28;20551;-89
2023/05/14 11:17:44;;;;;;;15.65;14.45;;;23.20;40.00;;;;;;5015205;28;20259;-89
2023/05/14 11:20:10;;;;;;;15.20;14.20;;;23.30;40.20;;;;;;5015167;28;20227;-89
2023/05/14 11:22:37;;;;;;;16.02;14.65;;;23.10;39.70;;;;;;5015010;28;20177;-89
2023/05/14 11:25:04;;;;;;;17.08;14.95;;;23.10;39.60;;;;;;5013790;28;20178;-89
2023/05/14 11:27:32;;;;;;;21.40;19.45;;;23.20;40.60;;;;;;5013964;28;20224;-89
2023/05/14 11:29:59;;;;;;;20.02;18.42;;;23.30;36.70;;;;;;5013963;28;20174;-89
2023/05/14 11:32:25;;;;;;;20.50;18.83;;;23.20;38.10;;;;;;5014861;28;20189;-89
2023/05/14 11:34:51;;;;;;;20.58;19.02;;;23.40;38.10;;;;;;5013674;28;20547;-89
2023/05/14 11:37:17;;;;;;;20.52;18.95;;;23.50;38.60;;;;;;5015010;28;20193;-89
2023/05/14 11:40:00;;;;;;;20.15;18.80;;;23.60;37.90;;;;;;5014059;28;20643;-88
2023/05/14 11:42:26;;;;;;;20.60;19.10;;;23.70;38.70;;;;;;5013576;28;20197;-88
2023/05/14 11:44:55;;;;;;;21.30;19.10;;;23.70;34.40;;;;;;5013710;28;20173;-88
2023/05/14 11:47:21;;;;;;;20.45;18.52;;;23.90;37.50;;;;;;5014465;28;20280;-89
2023/05/14 11:49:47;;;;;;;14.57;13.38;;;23.80;37.40;;;;;;5018367;28;20249;-88
2023/05/14 11:52:14;;;;;;;14.68;13.63;;;23.20;38.10;;;;;;5013589;28;20204;-88
2023/05/14 11:54:42;;;;;;;16.27;14.55;;;22.70;37.90;;;;;;5014869;28;20223;-88
2023/05/14 11:57:14;;;;;;;14.80;13.75;;;22.50;38.60;;;;;;5013205;28;20296;-88
2023/05/14 11:59:40;;;;;;;15.00;13.65;;;23.10;39.70;;;;;;5013490;28;20620;-88
2023/05/14 12:02:10;;;;;;;14.65;13.18;;;23.30;40.50;;;;;;5014263;28;20199;-87
2023/05/14 12:04:36;;;;;;;15.32;13.80;;;23.10;40.80;;;;;;5014508;28;20241;-88
2023/05/14 12:07:09;;;;;;;14.60;13.70;;;22.70;42.30;;;;;;5013371;28;20217;-88
2023/05/14 12:09:38;;;;;;;14.80;13.77;;;22.70;41.40;;;;;;5013025;28;20176;-87
2023/05/14 12:12:08;;;;;;;15.57;13.57;;;22.60;39.70;;;;;;5012941;28;20193;-87
2023/05/14 12:14:44;;;;;;;14.52;13.52;;;22.40;43.60;;;;;;5013388;28;20185;-87
2023/05/14 12:17:17;;;;;;;19.65;14.02;;;22.10;41.50;;;;;;5013541;28;20201;-87
2023/05/14 12:19:44;;;;;;;14.50;13.27;;;21.80;41.80;;;;;;5013750;28;20521;-87
2023/05/14 12:22:12;;;;;;;15.10;13.70;;;21.80;42.60;;;;;;5012780;28;20196;-87
2023/05/14 12:24:38;;;;;;;14.13;13.20;;;21.90;43.30;;;;;;5014121;28;20177;-86
2023/05/14 12:27:04;;;;;;;15.13;13.68;;;22.20;43.60;;;;;;5013615;28;20177;-86